Main page
METAR-TAF:

METAR-TAF

Airports :

MOD St Athan

St Athan, Wales

latitude: 51-24N, longitude: 003-26W, elevation: 50 m

Current weather observation

The report was made 1 hour and 1 minutes ago, at 23:50 UTC
Wind 11 kt from the Northeast
Temperature 3°C
Humidity 87%
Pressure 1005 hPa
Visibility 10 km or more

METAR: EGDX 202350Z AUTO 05011KT 9999 FEW027/// 03/01 Q1005

Time: 00:51 (00:51 UTC)

Forecast

The report was made 11 hours and 28 minutes ago, at 13:23 UTC
Forecast valid from 20 at 15 UTC to 20 at 18 UTC
Wind 14 kt from the Northeast
Visibility 10 km or more
Broken clouds at a height of 3500 ft
Probability 40% :
Temporary
from 20 at 15 UTC to 20 at 18 UTC
Scattered clouds at a height of 2000 ft
Probability 30% :
Temporary
from 20 at 15 UTC to 20 at 18 UTC
Visibility: 7000 m
Scattered clouds at a height of 1200 ft
light rain

TAF: EGDX 201323Z 2015/2018 05014KT 9999 BKN035 PROB40 TEMPO 2015/2018 SCT020 PROB30 TEMPO 2015/2018 7000 -RA SCT012

Weather observations and forecasts of more than 4000 airports (METAR and TAF reports).

The available stations are represented by yellow and red dots on the map.

Hover mouse over dot to see the name of the station.

Then click to see weather observations and forecasts.

To change the map : click on the green buttons with a black cross to zoom in, on the green button with a dash to zoom out, or on the green arrows for adjacent maps.


METAR-TAF: